createdAt,value
2022-08-14T00:05:26.055Z,15.52
2022-08-14T00:15:03.219Z,15.31
2022-08-14T00:24:40.160Z,15.12
2022-08-14T00:34:35.782Z,15.08
2022-08-14T00:43:54.235Z,15.07
2022-08-14T00:53:31.483Z,15.04
2022-08-14T01:03:08.627Z,15.21
2022-08-14T01:12:46.471Z,15.11
2022-08-14T01:22:26.749Z,14.81
2022-08-14T01:31:59.881Z,14.72
2022-08-14T01:41:36.631Z,14.47
2022-08-14T01:51:18.961Z,14.64
2022-08-14T02:00:52.355Z,14.5
2022-08-14T02:10:28.287Z,14.46
2022-08-14T02:20:05.536Z,14.28
2022-08-14T02:29:56.511Z,14.3
2022-08-14T02:39:20.166Z,14.21
2022-08-14T02:49:02.273Z,14.14
2022-08-14T02:58:33.675Z,13.77
2022-08-14T03:08:11.198Z,13.75
2022-08-14T03:17:56.821Z,13.72
2022-08-14T03:27:26.478Z,13.57
2022-08-14T03:37:28.291Z,13.53
2022-08-14T03:46:53.239Z,13.73
2022-08-14T03:56:17.971Z,13.48
2022-08-14T04:05:52.745Z,13.49
2022-08-14T04:15:29.847Z,13.51
2022-08-14T04:25:07.299Z,13.5
2022-08-14T04:34:48.143Z,13.67
2022-08-14T04:44:26.898Z,13.7
2022-08-14T04:53:59.271Z,13.73
2022-08-14T05:03:37.551Z,14.06
2022-08-14T05:13:15.484Z,14.4
2022-08-14T05:22:56.107Z,14.63
2022-08-14T05:32:29.519Z,14.97
2022-08-14T05:42:10.090Z,15.37
2022-08-14T05:51:45.171Z,15.75
2022-08-14T06:01:22.850Z,16.21
2022-08-14T06:11:00.923Z,16.63
2022-08-14T06:20:39.146Z,17.21
2022-08-14T06:30:16.949Z,17.55
2022-08-14T06:39:55.162Z,18.07
2022-08-14T06:49:40.180Z,18.53
2022-08-14T06:59:16.001Z,19.05
2022-08-14T07:08:49.248Z,19.83
2022-08-14T07:18:27.988Z,20.37
2022-08-14T07:28:06.126Z,20.68
2022-08-14T07:37:44.419Z,21.38
2022-08-14T07:47:23.098Z,22.03
2022-08-14T07:57:01.099Z,22.57
2022-08-14T08:06:39.305Z,22.84
2022-08-14T08:16:18.544Z,23.69
2022-08-14T08:25:57.984Z,24.38
2022-08-14T08:35:46.772Z,25.04
2022-08-14T08:45:15.097Z,25.2
2022-08-14T08:54:53.067Z,25.78
2022-08-14T09:04:31.774Z,26.34
2022-08-14T09:14:10.438Z,26.78
2022-08-14T09:24:26.037Z,27.04
2022-08-14T09:33:28.138Z,27.58
2022-08-14T09:43:07.479Z,28.5
2022-08-14T09:52:59.241Z,28.27
2022-08-14T10:02:46.270Z,30.1
2022-08-14T10:12:30.870Z,31.2
2022-08-14T10:23:13.839Z,30.94
2022-08-14T10:31:54.055Z,31.2
2022-08-14T10:41:36.735Z,33.26
2022-08-14T10:51:18.844Z,32.67
2022-08-14T11:00:59.178Z,33.91
2022-08-14T11:10:37.039Z,33.98
2022-08-14T11:20:18.433Z,34.67
2022-08-14T11:30:00.502Z,34.32
2022-08-14T11:39:34.220Z,34.43
2022-08-14T11:49:03.263Z,31.36
2022-08-14T11:58:43.766Z,34.28
2022-08-14T12:08:07.136Z,34.14
2022-08-14T12:17:47.439Z,32.7
2022-08-14T12:27:10.325Z,31.97
2022-08-14T12:36:38.698Z,32.38
2022-08-14T12:46:35.301Z,33.99
2022-08-14T12:56:18.875Z,33.66
2022-08-14T13:05:33.213Z,34.02
2022-08-14T13:15:15.933Z,35.13
2022-08-14T13:24:37.114Z,33.3
2022-08-14T13:34:33.019Z,34.41
2022-08-14T13:44:16.602Z,33.6
2022-08-14T13:54:07.313Z,34.56
2022-08-14T14:03:16.954Z,32.84
2022-08-14T14:13:09.916Z,35.91
2022-08-14T14:23:01.058Z,34.11
2022-08-14T14:32:34.185Z,35.55
2022-08-14T14:42:13.645Z,34.1
2022-08-14T14:51:38.646Z,30.79
2022-08-14T15:01:17.665Z,32.57
2022-08-14T15:10:52.308Z,32.05
2022-08-14T15:20:31.306Z,33.09
2022-08-14T15:30:08.674Z,34.4
2022-08-14T15:39:46.675Z,34.47
2022-08-14T15:49:25.362Z,33.58
2022-08-14T15:58:56.194Z,32.4
2022-08-14T16:08:33.813Z,32.15
2022-08-14T16:18:09.005Z,31.27
2022-08-14T16:27:44.177Z,30.77
2022-08-14T16:37:20.487Z,30.48
2022-08-14T16:46:57.377Z,30.02
2022-08-14T16:56:35.058Z,29.32
2022-08-14T17:06:30.945Z,29.12
2022-08-14T17:15:47.262Z,28.92
2022-08-14T17:25:24.427Z,28.47
2022-08-14T17:35:01.692Z,28.18
2022-08-14T17:44:45.329Z,27.95
2022-08-14T17:54:15.472Z,27.59
2022-08-14T18:03:53.256Z,27.36
2022-08-14T18:13:50.486Z,26.89
2022-08-14T18:23:05.869Z,26.37
2022-08-14T18:32:46.213Z,25.9
2022-08-14T18:42:23.270Z,25.36
2022-08-14T18:51:56.258Z,24.68
2022-08-14T19:01:32.863Z,24.03
2022-08-14T19:11:09.710Z,23.43
2022-08-14T19:20:46.486Z,23
2022-08-14T19:30:23.570Z,22.76
2022-08-14T19:40:00.264Z,22.51
2022-08-14T19:50:09.238Z,22.06
2022-08-14T19:59:14.272Z,21.77
2022-08-14T20:09:06.834Z,21.64
2022-08-14T20:18:48.863Z,21.39
2022-08-14T20:28:29.134Z,20.95
2022-08-14T20:37:42.654Z,20.94
2022-08-14T20:47:20.050Z,20.79
2022-08-14T20:56:57.201Z,20.45
2022-08-14T21:06:49.192Z,20.31
2022-08-14T21:16:26.089Z,20.06
2022-08-14T21:25:48.261Z,19.88
2022-08-14T21:35:25.771Z,19.86
2022-08-14T21:45:02.658Z,19.67
2022-08-14T21:54:48.981Z,19.52
2022-08-14T22:04:33.909Z,19.75
2022-08-14T22:13:54.678Z,19.82
2022-08-14T22:23:32.101Z,19.83
2022-08-14T22:33:09.981Z,19.77
2022-08-14T22:42:57.666Z,19.56
2022-08-14T22:52:32.271Z,19.42
2022-08-14T23:02:03.693Z,19.55
2022-08-14T23:11:38.052Z,19.47
2022-08-14T23:21:15.401Z,19.35
2022-08-14T23:30:52.313Z,19.38
2022-08-14T23:40:30.054Z,19.34
2022-08-14T23:50:07.787Z,19.21
2022-08-14T23:59:45.005Z,19.33
